sensor_id;sensor_type;location;lat;lon;timestamp;P1;durP1;ratioP1;P2;durP2;ratioP2
37275;SDS011;23166;51.150;21.620;2022-11-21T00:00:46;16.87;;;11.33;;
37275;SDS011;23166;51.150;21.620;2022-11-21T00:03:15;13.87;;;8.73;;
37275;SDS011;23166;51.150;21.620;2022-11-21T00:05:42;22.13;;;14.30;;
37275;SDS011;23166;51.150;21.620;2022-11-21T00:08:11;16.67;;;9.63;;
37275;SDS011;23166;51.150;21.620;2022-11-21T00:10:39;29.43;;;14.33;;
37275;SDS011;23166;51.150;21.620;2022-11-21T00:13:10;20.27;;;11.70;;
37275;SDS011;23166;51.150;21.620;2022-11-21T00:15:40;31.80;;;13.43;;
37275;SDS011;23166;51.150;21.620;2022-11-21T00:18:07;23.45;;;9.68;;
37275;SDS011;23166;51.150;21.620;2022-11-21T00:20:34;25.00;;;12.73;;
37275;SDS011;23166;51.150;21.620;2022-11-21T00:23:02;17.43;;;8.87;;
37275;SDS011;23166;51.150;21.620;2022-11-21T00:25:28;36.75;;;10.90;;
37275;SDS011;23166;51.150;21.620;2022-11-21T00:27:54;25.48;;;14.70;;
37275;SDS011;23166;51.150;21.620;2022-11-21T00:30:21;14.28;;;8.40;;
37275;SDS011;23166;51.150;21.620;2022-11-21T00:32:47;19.05;;;10.98;;
37275;SDS011;23166;51.150;21.620;2022-11-21T00:35:14;30.00;;;12.75;;
37275;SDS011;23166;51.150;21.620;2022-11-21T00:37:40;38.75;;;13.45;;
37275;SDS011;23166;51.150;21.620;2022-11-21T00:40:07;24.55;;;14.75;;
37275;SDS011;23166;51.150;21.620;2022-11-21T00:42:34;33.17;;;14.30;;
37275;SDS011;23166;51.150;21.620;2022-11-21T00:45:00;25.20;;;11.75;;
37275;SDS011;23166;51.150;21.620;2022-11-21T00:47:27;27.73;;;15.03;;
37275;SDS011;23166;51.150;21.620;2022-11-21T00:49:53;21.23;;;10.80;;
37275;SDS011;23166;51.150;21.620;2022-11-21T00:52:20;22.77;;;12.15;;
37275;SDS011;23166;51.150;21.620;2022-11-21T00:54:46;24.70;;;14.45;;
37275;SDS011;23166;51.150;21.620;2022-11-21T00:57:12;20.12;;;11.45;;
37275;SDS011;23166;51.150;21.620;2022-11-21T00:59:39;26.95;;;13.45;;
37275;SDS011;23166;51.150;21.620;2022-11-21T01:02:05;26.90;;;13.40;;
37275;SDS011;23166;51.150;21.620;2022-11-21T01:04:32;16.15;;;11.25;;
37275;SDS011;23166;51.150;21.620;2022-11-21T01:06:59;21.17;;;9.50;;
37275;SDS011;23166;51.150;21.620;2022-11-21T01:09:26;31.80;;;14.43;;
37275;SDS011;23166;51.150;21.620;2022-11-21T01:14:19;19.12;;;8.43;;
37275;SDS011;23166;51.150;21.620;2022-11-21T01:16:46;23.30;;;11.12;;
37275;SDS011;23166;51.150;21.620;2022-11-21T01:19:12;31.37;;;12.15;;
37275;SDS011;23166;51.150;21.620;2022-11-21T01:21:38;19.42;;;9.05;;
37275;SDS011;23166;51.150;21.620;2022-11-21T01:24:05;28.32;;;14.10;;
37275;SDS011;23166;51.150;21.620;2022-11-21T01:26:31;32.63;;;13.20;;
37275;SDS011;23166;51.150;21.620;2022-11-21T01:28:58;24.50;;;14.65;;
37275;SDS011;23166;51.150;21.620;2022-11-21T01:31:25;18.75;;;9.40;;
37275;SDS011;23166;51.150;21.620;2022-11-21T01:33:54;16.20;;;9.47;;
37275;SDS011;23166;51.150;21.620;2022-11-21T01:36:34;19.10;;;10.73;;
37275;SDS011;23166;51.150;21.620;2022-11-21T01:39:02;29.93;;;13.17;;
37275;SDS011;23166;51.150;21.620;2022-11-21T01:41:31;35.03;;;15.37;;
37275;SDS011;23166;51.150;21.620;2022-11-21T01:44:08;24.70;;;13.10;;
37275;SDS011;23166;51.150;21.620;2022-11-21T01:46:32;33.20;;;11.50;;
37275;SDS011;23166;51.150;21.620;2022-11-21T01:54:50;15.77;;;12.03;;
37275;SDS011;23166;51.150;21.620;2022-11-21T01:57:23;22.03;;;12.83;;
37275;SDS011;23166;51.150;21.620;2022-11-21T02:02:28;28.35;;;11.05;;
37275;SDS011;23166;51.150;21.620;2022-11-21T02:04:57;18.07;;;10.17;;
37275;SDS011;23166;51.150;21.620;2022-11-21T02:07:25;19.17;;;13.77;;
37275;SDS011;23166;51.150;21.620;2022-11-21T02:09:54;30.97;;;11.60;;
37275;SDS011;23166;51.150;21.620;2022-11-21T02:12:31;20.90;;;11.43;;
37275;SDS011;23166;51.150;21.620;2022-11-21T02:15:02;19.10;;;10.17;;
37275;SDS011;23166;51.150;21.620;2022-11-21T02:17:29;14.38;;;8.05;;
37275;SDS011;23166;51.150;21.620;2022-11-21T02:20:04;28.20;;;13.10;;
37275;SDS011;23166;51.150;21.620;2022-11-21T02:22:35;24.40;;;12.93;;
37275;SDS011;23166;51.150;21.620;2022-11-21T02:25:20;17.30;;;11.90;;
37275;SDS011;23166;51.150;21.620;2022-11-21T02:27:49;28.63;;;13.53;;
37275;SDS011;23166;51.150;21.620;2022-11-21T02:30:18;23.80;;;12.27;;
37275;SDS011;23166;51.150;21.620;2022-11-21T02:32:44;35.03;;;11.95;;
37275;SDS011;23166;51.150;21.620;2022-11-21T02:35:15;26.73;;;11.53;;
37275;SDS011;23166;51.150;21.620;2022-11-21T02:37:47;29.57;;;12.83;;
37275;SDS011;23166;51.150;21.620;2022-11-21T02:40:20;29.50;;;15.10;;
37275;SDS011;23166;51.150;21.620;2022-11-21T02:45:27;25.85;;;12.90;;
37275;SDS011;23166;51.150;21.620;2022-11-21T02:47:55;25.20;;;13.23;;
37275;SDS011;23166;51.150;21.620;2022-11-21T02:50:22;23.22;;;11.80;;
37275;SDS011;23166;51.150;21.620;2022-11-21T02:52:51;21.27;;;14.93;;
37275;SDS011;23166;51.150;21.620;2022-11-21T02:55:18;25.43;;;11.65;;
37275;SDS011;23166;51.150;21.620;2022-11-21T02:57:44;19.07;;;11.80;;
37275;SDS011;23166;51.150;21.620;2022-11-21T03:00:11;25.15;;;11.25;;
37275;SDS011;23166;51.150;21.620;2022-11-21T03:02:37;20.43;;;13.78;;
37275;SDS011;23166;51.150;21.620;2022-11-21T03:05:04;23.65;;;12.88;;
37275;SDS011;23166;51.150;21.620;2022-11-21T03:07:32;29.73;;;14.80;;
37275;SDS011;23166;51.150;21.620;2022-11-21T03:09:59;28.65;;;14.85;;
37275;SDS011;23166;51.150;21.620;2022-11-21T03:12:25;22.02;;;13.38;;
37275;SDS011;23166;51.150;21.620;2022-11-21T03:14:52;38.02;;;16.50;;
37275;SDS011;23166;51.150;21.620;2022-11-21T03:17:18;24.70;;;14.87;;
37275;SDS011;23166;51.150;21.620;2022-11-21T03:19:44;20.85;;;10.48;;
37275;SDS011;23166;51.150;21.620;2022-11-21T03:22:11;30.48;;;13.83;;
37275;SDS011;23166;51.150;21.620;2022-11-21T03:24:39;20.20;;;12.83;;
37275;SDS011;23166;51.150;21.620;2022-11-21T03:27:05;25.85;;;11.95;;
37275;SDS011;23166;51.150;21.620;2022-11-21T03:29:32;24.90;;;13.45;;
37275;SDS011;23166;51.150;21.620;2022-11-21T03:31:58;24.82;;;10.40;;
37275;SDS011;23166;51.150;21.620;2022-11-21T03:34:25;23.35;;;12.10;;
37275;SDS011;23166;51.150;21.620;2022-11-21T03:36:51;24.80;;;15.05;;
37275;SDS011;23166;51.150;21.620;2022-11-21T03:39:18;29.10;;;11.18;;
37275;SDS011;23166;51.150;21.620;2022-11-21T03:41:44;27.02;;;13.05;;
37275;SDS011;23166;51.150;21.620;2022-11-21T03:44:10;39.67;;;16.55;;
37275;SDS011;23166;51.150;21.620;2022-11-21T03:46:38;27.58;;;13.55;;
37275;SDS011;23166;51.150;21.620;2022-11-21T03:49:06;35.53;;;15.60;;
37275;SDS011;23166;51.150;21.620;2022-11-21T03:54:00;32.93;;;16.02;;
37275;SDS011;23166;51.150;21.620;2022-11-21T03:56:26;20.50;;;13.13;;
37275;SDS011;23166;51.150;21.620;2022-11-21T03:58:52;25.85;;;13.03;;
37275;SDS011;23166;51.150;21.620;2022-11-21T04:01:19;22.60;;;11.57;;
37275;SDS011;23166;51.150;21.620;2022-11-21T04:03:46;18.75;;;12.07;;
37275;SDS011;23166;51.150;21.620;2022-11-21T04:06:13;42.88;;;17.00;;
37275;SDS011;23166;51.150;21.620;2022-11-21T04:08:42;30.23;;;15.10;;
37275;SDS011;23166;51.150;21.620;2022-11-21T04:11:09;21.00;;;14.63;;
37275;SDS011;23166;51.150;21.620;2022-11-21T04:13:35;26.45;;;11.80;;
37275;SDS011;23166;51.150;21.620;2022-11-21T04:16:02;33.45;;;17.62;;
37275;SDS011;23166;51.150;21.620;2022-11-21T04:18:28;25.20;;;12.10;;
37275;SDS011;23166;51.150;21.620;2022-11-21T04:21:02;22.35;;;12.75;;
37275;SDS011;23166;51.150;21.620;2022-11-21T04:23:30;30.73;;;14.43;;
37275;SDS011;23166;51.150;21.620;2022-11-21T04:25:57;26.43;;;11.70;;
37275;SDS011;23166;51.150;21.620;2022-11-21T04:28:24;43.50;;;11.88;;
37275;SDS011;23166;51.150;21.620;2022-11-21T04:30:50;13.88;;;7.33;;
37275;SDS011;23166;51.150;21.620;2022-11-21T04:33:17;18.90;;;11.25;;
37275;SDS011;23166;51.150;21.620;2022-11-21T04:35:44;23.18;;;12.85;;
37275;SDS011;23166;51.150;21.620;2022-11-21T04:38:11;24.23;;;12.37;;
37275;SDS011;23166;51.150;21.620;2022-11-21T04:40:39;19.97;;;9.97;;
37275;SDS011;23166;51.150;21.620;2022-11-21T04:43:07;24.10;;;12.17;;
37275;SDS011;23166;51.150;21.620;2022-11-21T04:45:33;18.30;;;11.35;;
37275;SDS011;23166;51.150;21.620;2022-11-21T04:48:00;31.80;;;11.83;;
37275;SDS011;23166;51.150;21.620;2022-11-21T04:50:26;35.25;;;14.38;;
37275;SDS011;23166;51.150;21.620;2022-11-21T04:52:53;22.52;;;11.78;;
37275;SDS011;23166;51.150;21.620;2022-11-21T04:55:21;27.37;;;12.10;;
37275;SDS011;23166;51.150;21.620;2022-11-21T04:57:49;30.87;;;13.27;;
37275;SDS011;23166;51.150;21.620;2022-11-21T05:00:16;32.78;;;15.20;;
37275;SDS011;23166;51.150;21.620;2022-11-21T05:02:43;22.27;;;12.33;;
37275;SDS011;23166;51.150;21.620;2022-11-21T05:07:36;20.30;;;9.95;;
37275;SDS011;23166;51.150;21.620;2022-11-21T05:10:03;24.87;;;11.00;;
37275;SDS011;23166;51.150;21.620;2022-11-21T05:12:30;24.47;;;13.93;;
37275;SDS011;23166;51.150;21.620;2022-11-21T05:15:16;35.40;;;12.63;;
37275;SDS011;23166;51.150;21.620;2022-11-21T05:17:42;27.70;;;12.80;;
37275;SDS011;23166;51.150;21.620;2022-11-21T05:20:09;29.37;;;11.95;;
37275;SDS011;23166;51.150;21.620;2022-11-21T05:22:36;17.03;;;11.27;;
37275;SDS011;23166;51.150;21.620;2022-11-21T05:25:02;25.60;;;11.78;;
37275;SDS011;23166;51.150;21.620;2022-11-21T05:27:29;18.80;;;12.20;;
37275;SDS011;23166;51.150;21.620;2022-11-21T05:29:55;29.50;;;12.82;;
37275;SDS011;23166;51.150;21.620;2022-11-21T05:32:22;26.68;;;12.90;;
37275;SDS011;23166;51.150;21.620;2022-11-21T05:34:49;16.60;;;9.50;;
37275;SDS011;23166;51.150;21.620;2022-11-21T05:37:15;36.77;;;13.72;;
37275;SDS011;23166;51.150;21.620;2022-11-21T05:39:42;31.30;;;14.55;;
37275;SDS011;23166;51.150;21.620;2022-11-21T05:42:08;25.05;;;13.53;;
37275;SDS011;23166;51.150;21.620;2022-11-21T05:44:34;24.37;;;13.90;;
37275;SDS011;23166;51.150;21.620;2022-11-21T05:47:01;30.90;;;12.37;;
37275;SDS011;23166;51.150;21.620;2022-11-21T05:49:27;22.00;;;10.60;;
37275;SDS011;23166;51.150;21.620;2022-11-21T05:51:53;21.80;;;12.18;;
37275;SDS011;23166;51.150;21.620;2022-11-21T05:54:20;16.42;;;10.50;;
37275;SDS011;23166;51.150;21.620;2022-11-21T05:56:46;18.10;;;11.10;;
37275;SDS011;23166;51.150;21.620;2022-11-21T05:59:13;18.75;;;12.93;;
37275;SDS011;23166;51.150;21.620;2022-11-21T06:01:39;18.73;;;9.13;;
37275;SDS011;23166;51.150;21.620;2022-11-21T06:04:24;26.70;;;11.27;;
37275;SDS011;23166;51.150;21.620;2022-11-21T06:06:50;17.67;;;8.08;;
37275;SDS011;23166;51.150;21.620;2022-11-21T06:09:16;15.30;;;9.00;;
37275;SDS011;23166;51.150;21.620;2022-11-21T06:11:43;14.53;;;10.38;;
37275;SDS011;23166;51.150;21.620;2022-11-21T06:14:09;16.60;;;9.93;;
37275;SDS011;23166;51.150;21.620;2022-11-21T06:16:36;21.37;;;10.40;;
37275;SDS011;23166;51.150;21.620;2022-11-21T06:19:02;25.52;;;11.08;;
37275;SDS011;23166;51.150;21.620;2022-11-21T06:21:28;25.27;;;13.20;;
37275;SDS011;23166;51.150;21.620;2022-11-21T06:23:55;17.27;;;10.90;;
37275;SDS011;23166;51.150;21.620;2022-11-21T06:26:24;21.57;;;10.67;;
37275;SDS011;23166;51.150;21.620;2022-11-21T06:28:51;19.87;;;9.67;;
37275;SDS011;23166;51.150;21.620;2022-11-21T06:31:23;10.87;;;9.73;;
37275;SDS011;23166;51.150;21.620;2022-11-21T06:33:55;23.23;;;11.43;;
37275;SDS011;23166;51.150;21.620;2022-11-21T06:36:23;13.67;;;7.43;;
37275;SDS011;23166;51.150;21.620;2022-11-21T06:38:51;16.90;;;10.13;;
37275;SDS011;23166;51.150;21.620;2022-11-21T06:41:22;23.07;;;8.73;;
37275;SDS011;23166;51.150;21.620;2022-11-21T06:43:50;23.43;;;12.70;;
37275;SDS011;23166;51.150;21.620;2022-11-21T06:48:44;17.45;;;11.10;;
37275;SDS011;23166;51.150;21.620;2022-11-21T06:51:22;20.08;;;11.28;;
37275;SDS011;23166;51.150;21.620;2022-11-21T06:53:53;20.43;;;9.00;;
37275;SDS011;23166;51.150;21.620;2022-11-21T06:56:24;22.67;;;12.10;;
37275;SDS011;23166;51.150;21.620;2022-11-21T06:58:52;20.70;;;9.73;;
37275;SDS011;23166;51.150;21.620;2022-11-21T07:01:19;20.75;;;10.43;;
37275;SDS011;23166;51.150;21.620;2022-11-21T07:06:12;21.93;;;12.18;;
37275;SDS011;23166;51.150;21.620;2022-11-21T07:08:38;29.50;;;11.08;;
37275;SDS011;23166;51.150;21.620;2022-11-21T07:11:07;24.00;;;13.53;;
37275;SDS011;23166;51.150;21.620;2022-11-21T07:13:36;23.33;;;12.63;;
37275;SDS011;23166;51.150;21.620;2022-11-21T07:16:03;30.37;;;13.88;;
37275;SDS011;23166;51.150;21.620;2022-11-21T07:18:33;30.80;;;12.73;;
37275;SDS011;23166;51.150;21.620;2022-11-21T07:21:00;27.07;;;12.80;;
37275;SDS011;23166;51.150;21.620;2022-11-21T07:23:28;20.60;;;12.10;;
37275;SDS011;23166;51.150;21.620;2022-11-21T07:25:59;26.00;;;11.90;;
37275;SDS011;23166;51.150;21.620;2022-11-21T07:28:27;15.90;;;12.10;;
37275;SDS011;23166;51.150;21.620;2022-11-21T07:30:59;34.97;;;15.03;;
37275;SDS011;23166;51.150;21.620;2022-11-21T07:33:23;28.27;;;11.17;;
37275;SDS011;23166;51.150;21.620;2022-11-21T07:35:49;23.80;;;10.48;;
37275;SDS011;23166;51.150;21.620;2022-11-21T07:38:16;24.40;;;10.15;;
37275;SDS011;23166;51.150;21.620;2022-11-21T07:40:42;14.43;;;7.37;;
37275;SDS011;23166;51.150;21.620;2022-11-21T07:43:09;23.90;;;11.25;;
37275;SDS011;23166;51.150;21.620;2022-11-21T07:48:03;30.65;;;13.78;;
37275;SDS011;23166;51.150;21.620;2022-11-21T07:50:31;17.23;;;10.10;;
37275;SDS011;23166;51.150;21.620;2022-11-21T07:55:30;37.07;;;16.07;;
37275;SDS011;23166;51.150;21.620;2022-11-21T07:58:00;30.20;;;11.70;;
37275;SDS011;23166;51.150;21.620;2022-11-21T08:00:32;30.27;;;11.47;;
37275;SDS011;23166;51.150;21.620;2022-11-21T08:03:00;27.90;;;13.03;;
37275;SDS011;23166;51.150;21.620;2022-11-21T08:05:26;33.58;;;15.80;;
37275;SDS011;23166;51.150;21.620;2022-11-21T08:07:53;33.00;;;12.73;;
37275;SDS011;23166;51.150;21.620;2022-11-21T08:10:19;23.95;;;10.20;;
37275;SDS011;23166;51.150;21.620;2022-11-21T08:12:46;38.30;;;12.37;;
37275;SDS011;23166;51.150;21.620;2022-11-21T08:15:12;24.40;;;12.43;;
37275;SDS011;23166;51.150;21.620;2022-11-21T08:17:39;35.85;;;12.37;;
37275;SDS011;23166;51.150;21.620;2022-11-21T08:20:06;30.45;;;12.98;;
37275;SDS011;23166;51.150;21.620;2022-11-21T08:22:45;38.10;;;14.73;;
37275;SDS011;23166;51.150;21.620;2022-11-21T08:25:11;28.10;;;14.73;;
37275;SDS011;23166;51.150;21.620;2022-11-21T08:27:38;22.60;;;10.15;;
37275;SDS011;23166;51.150;21.620;2022-11-21T08:30:06;40.45;;;12.37;;
37275;SDS011;23166;51.150;21.620;2022-11-21T08:32:33;32.13;;;14.90;;
37275;SDS011;23166;51.150;21.620;2022-11-21T08:34:59;35.45;;;15.32;;
37275;SDS011;23166;51.150;21.620;2022-11-21T08:37:27;37.55;;;12.90;;
37275;SDS011;23166;51.150;21.620;2022-11-21T08:39:54;31.07;;;13.20;;
37275;SDS011;23166;51.150;21.620;2022-11-21T08:42:21;44.40;;;14.30;;
37275;SDS011;23166;51.150;21.620;2022-11-21T08:44:47;25.05;;;10.43;;
37275;SDS011;23166;51.150;21.620;2022-11-21T08:47:13;37.58;;;15.30;;
37275;SDS011;23166;51.150;21.620;2022-11-21T08:49:40;30.62;;;15.13;;
37275;SDS011;23166;51.150;21.620;2022-11-21T08:52:06;17.12;;;10.50;;
37275;SDS011;23166;51.150;21.620;2022-11-21T08:54:32;25.95;;;12.10;;
37275;SDS011;23166;51.150;21.620;2022-11-21T08:56:59;24.75;;;12.68;;
37275;SDS011;23166;51.150;21.620;2022-11-21T08:59:25;19.12;;;11.25;;
37275;SDS011;23166;51.150;21.620;2022-11-21T09:01:51;25.10;;;11.45;;
37275;SDS011;23166;51.150;21.620;2022-11-21T09:04:18;41.85;;;12.68;;
37275;SDS011;23166;51.150;21.620;2022-11-21T09:06:44;31.93;;;11.70;;
37275;SDS011;23166;51.150;21.620;2022-11-21T09:09:11;22.22;;;11.12;;
37275;SDS011;23166;51.150;21.620;2022-11-21T09:11:37;22.42;;;10.65;;
37275;SDS011;23166;51.150;21.620;2022-11-21T09:14:04;19.77;;;10.88;;
37275;SDS011;23166;51.150;21.620;2022-11-21T09:16:48;35.87;;;10.87;;
37275;SDS011;23166;51.150;21.620;2022-11-21T09:19:33;18.00;;;8.43;;
37275;SDS011;23166;51.150;21.620;2022-11-21T09:22:00;34.65;;;14.40;;
37275;SDS011;23166;51.150;21.620;2022-11-21T09:24:26;27.65;;;10.45;;
37275;SDS011;23166;51.150;21.620;2022-11-21T09:26:52;18.52;;;11.10;;
37275;SDS011;23166;51.150;21.620;2022-11-21T09:29:19;30.43;;;11.00;;
37275;SDS011;23166;51.150;21.620;2022-11-21T09:31:45;20.68;;;9.25;;
37275;SDS011;23166;51.150;21.620;2022-11-21T09:34:11;25.08;;;12.07;;
37275;SDS011;23166;51.150;21.620;2022-11-21T09:36:38;23.55;;;10.35;;
37275;SDS011;23166;51.150;21.620;2022-11-21T09:39:04;21.50;;;8.43;;
37275;SDS011;23166;51.150;21.620;2022-11-21T09:41:36;19.02;;;9.58;;
37275;SDS011;23166;51.150;21.620;2022-11-21T09:46:53;31.93;;;11.47;;
37275;SDS011;23166;51.150;21.620;2022-11-21T09:49:21;17.87;;;8.93;;
37275;SDS011;23166;51.150;21.620;2022-11-21T09:51:50;26.80;;;12.53;;
37275;SDS011;23166;51.150;21.620;2022-11-21T09:54:21;29.73;;;12.20;;
37275;SDS011;23166;51.150;21.620;2022-11-21T09:56:51;22.93;;;10.60;;
37275;SDS011;23166;51.150;21.620;2022-11-21T10:01:49;23.33;;;9.17;;
37275;SDS011;23166;51.150;21.620;2022-11-21T10:04:16;19.92;;;9.88;;
37275;SDS011;23166;51.150;21.620;2022-11-21T10:06:46;25.27;;;10.03;;
37275;SDS011;23166;51.150;21.620;2022-11-21T10:23:29;22.37;;;7.97;;
37275;SDS011;23166;51.150;21.620;2022-11-21T10:28:46;24.73;;;11.57;;
37275;SDS011;23166;51.150;21.620;2022-11-21T10:31:27;21.73;;;10.43;;
37275;SDS011;23166;51.150;21.620;2022-11-21T10:33:56;37.13;;;10.70;;
37275;SDS011;23166;51.150;21.620;2022-11-21T10:39:05;26.65;;;9.55;;
37275;SDS011;23166;51.150;21.620;2022-11-21T10:41:43;25.27;;;11.17;;
37275;SDS011;23166;51.150;21.620;2022-11-21T10:44:20;17.07;;;6.67;;
37275;SDS011;23166;51.150;21.620;2022-11-21T10:47:20;23.07;;;9.23;;
37275;SDS011;23166;51.150;21.620;2022-11-21T10:49:58;21.23;;;9.25;;
37275;SDS011;23166;51.150;21.620;2022-11-21T10:52:26;15.10;;;8.27;;
37275;SDS011;23166;51.150;21.620;2022-11-21T11:00:21;21.20;;;9.50;;
37275;SDS011;23166;51.150;21.620;2022-11-21T11:05:28;15.83;;;6.37;;
37275;SDS011;23166;51.150;21.620;2022-11-21T11:13:27;15.77;;;7.30;;
37275;SDS011;23166;51.150;21.620;2022-11-21T11:18:40;22.87;;;7.43;;
37275;SDS011;23166;51.150;21.620;2022-11-21T11:21:23;14.07;;;7.00;;
37275;SDS011;23166;51.150;21.620;2022-11-21T11:23:52;22.93;;;9.60;;
37275;SDS011;23166;51.150;21.620;2022-11-21T11:28:52;16.87;;;9.23;;
37275;SDS011;23166;51.150;21.620;2022-11-21T11:31:20;19.40;;;8.33;;
37275;SDS011;23166;51.150;21.620;2022-11-21T11:39:16;21.47;;;7.33;;
37275;SDS011;23166;51.150;21.620;2022-11-21T11:47:57;29.23;;;10.63;;
37275;SDS011;23166;51.150;21.620;2022-11-21T11:50:27;15.07;;;8.53;;
37275;SDS011;23166;51.150;21.620;2022-11-21T11:58:11;25.83;;;9.00;;
37275;SDS011;23166;51.150;21.620;2022-11-21T12:00:41;13.13;;;6.83;;
37275;SDS011;23166;51.150;21.620;2022-11-21T12:08:39;15.77;;;7.10;;
37275;SDS011;23166;51.150;21.620;2022-11-21T12:11:14;16.83;;;8.37;;
37275;SDS011;23166;51.150;21.620;2022-11-21T12:14:02;16.93;;;7.47;;
37275;SDS011;23166;51.150;21.620;2022-11-21T12:16:29;13.90;;;6.07;;
37275;SDS011;23166;51.150;21.620;2022-11-21T12:18:59;24.30;;;9.35;;
37275;SDS011;23166;51.150;21.620;2022-11-21T12:21:35;17.07;;;6.53;;
37275;SDS011;23166;51.150;21.620;2022-11-21T12:24:01;13.98;;;8.60;;
37275;SDS011;23166;51.150;21.620;2022-11-21T12:26:34;11.97;;;6.77;;
37275;SDS011;23166;51.150;21.620;2022-11-21T12:34:38;19.60;;;7.10;;
37275;SDS011;23166;51.150;21.620;2022-11-21T12:43:04;18.63;;;6.63;;
37275;SDS011;23166;51.150;21.620;2022-11-21T12:57:15;17.80;;;8.40;;
37275;SDS011;23166;51.150;21.620;2022-11-21T13:05:36;19.83;;;6.73;;
37275;SDS011;23166;51.150;21.620;2022-11-21T13:08:13;9.40;;;6.93;;
37275;SDS011;23166;51.150;21.620;2022-11-21T13:10:40;16.80;;;8.03;;
37275;SDS011;23166;51.150;21.620;2022-11-21T13:15:43;20.10;;;8.63;;
37275;SDS011;23166;51.150;21.620;2022-11-21T13:20:50;16.63;;;8.50;;
37275;SDS011;23166;51.150;21.620;2022-11-21T13:31:38;15.27;;;7.10;;
37275;SDS011;23166;51.150;21.620;2022-11-21T13:36:59;18.23;;;7.50;;
37275;SDS011;23166;51.150;21.620;2022-11-21T13:39:27;18.32;;;7.78;;
37275;SDS011;23166;51.150;21.620;2022-11-21T13:41:58;13.83;;;7.40;;
37275;SDS011;23166;51.150;21.620;2022-11-21T13:44:43;11.80;;;7.78;;
37275;SDS011;23166;51.150;21.620;2022-11-21T13:47:11;9.50;;;5.83;;
37275;SDS011;23166;51.150;21.620;2022-11-21T14:02:53;10.13;;;7.63;;
37275;SDS011;23166;51.150;21.620;2022-11-21T14:08:21;16.97;;;6.90;;
37275;SDS011;23166;51.150;21.620;2022-11-21T14:10:50;9.10;;;6.53;;
37275;SDS011;23166;51.150;21.620;2022-11-21T14:19:00;14.73;;;5.10;;
37275;SDS011;23166;51.150;21.620;2022-11-21T14:21:28;10.67;;;5.03;;
37275;SDS011;23166;51.150;21.620;2022-11-21T14:23:59;14.20;;;6.77;;
37275;SDS011;23166;51.150;21.620;2022-11-21T14:26:38;10.93;;;5.80;;
37275;SDS011;23166;51.150;21.620;2022-11-21T14:29:15;16.53;;;5.60;;
37275;SDS011;23166;51.150;21.620;2022-11-21T14:31:47;6.53;;;4.53;;
37275;SDS011;23166;51.150;21.620;2022-11-21T14:34:27;7.87;;;4.93;;
37275;SDS011;23166;51.150;21.620;2022-11-21T14:36:57;18.50;;;7.07;;
37275;SDS011;23166;51.150;21.620;2022-11-21T14:39:26;12.27;;;6.43;;
37275;SDS011;23166;51.150;21.620;2022-11-21T14:41:54;14.00;;;5.40;;
37275;SDS011;23166;51.150;21.620;2022-11-21T14:44:28;15.57;;;8.30;;
37275;SDS011;23166;51.150;21.620;2022-11-21T14:47:56;24.05;;;6.20;;
37275;SDS011;23166;51.150;21.620;2022-11-21T14:49:48;13.87;;;7.03;;
37275;SDS011;23166;51.150;21.620;2022-11-21T14:52:20;11.27;;;5.77;;
37275;SDS011;23166;51.150;21.620;2022-11-21T14:54:55;8.10;;;5.33;;
37275;SDS011;23166;51.150;21.620;2022-11-21T14:57:27;8.20;;;5.60;;
37275;SDS011;23166;51.150;21.620;2022-11-21T14:59:56;10.10;;;4.43;;
37275;SDS011;23166;51.150;21.620;2022-11-21T15:02:25;10.93;;;5.87;;
37275;SDS011;23166;51.150;21.620;2022-11-21T15:04:59;9.43;;;7.03;;
37275;SDS011;23166;51.150;21.620;2022-11-21T15:07:25;26.33;;;7.37;;
37275;SDS011;23166;51.150;21.620;2022-11-21T15:09:52;26.03;;;10.63;;
37275;SDS011;23166;51.150;21.620;2022-11-21T15:14:51;22.97;;;12.77;;
37275;SDS011;23166;51.150;21.620;2022-11-21T15:17:23;15.97;;;9.77;;
37275;SDS011;23166;51.150;21.620;2022-11-21T15:22:38;19.30;;;9.10;;
37275;SDS011;23166;51.150;21.620;2022-11-21T15:27:48;19.27;;;8.40;;
37275;SDS011;23166;51.150;21.620;2022-11-21T15:30:23;17.70;;;8.30;;
37275;SDS011;23166;51.150;21.620;2022-11-21T15:46:27;6.83;;;5.13;;
37275;SDS011;23166;51.150;21.620;2022-11-21T15:49:03;10.43;;;5.80;;
37275;SDS011;23166;51.150;21.620;2022-11-21T15:51:32;8.73;;;5.10;;
37275;SDS011;23166;51.150;21.620;2022-11-21T15:54:00;9.97;;;7.20;;
37275;SDS011;23166;51.150;21.620;2022-11-21T15:56:27;10.27;;;4.67;;
37275;SDS011;23166;51.150;21.620;2022-11-21T15:58:53;7.17;;;5.22;;
37275;SDS011;23166;51.150;21.620;2022-11-21T16:01:20;9.13;;;7.67;;
37275;SDS011;23166;51.150;21.620;2022-11-21T16:03:49;10.03;;;6.20;;
37275;SDS011;23166;51.150;21.620;2022-11-21T16:06:17;9.20;;;5.67;;
37275;SDS011;23166;51.150;21.620;2022-11-21T16:08:44;12.07;;;4.40;;
37275;SDS011;23166;51.150;21.620;2022-11-21T16:11:22;9.93;;;5.42;;
37275;SDS011;23166;51.150;21.620;2022-11-21T16:13:58;11.47;;;4.63;;
37275;SDS011;23166;51.150;21.620;2022-11-21T16:16:23;13.20;;;6.33;;
37275;SDS011;23166;51.150;21.620;2022-11-21T16:18:51;11.40;;;6.27;;
37275;SDS011;23166;51.150;21.620;2022-11-21T16:21:18;10.80;;;6.28;;
37275;SDS011;23166;51.150;21.620;2022-11-21T16:23:44;15.65;;;8.00;;
37275;SDS011;23166;51.150;21.620;2022-11-21T16:26:11;11.97;;;5.05;;
37275;SDS011;23166;51.150;21.620;2022-11-21T16:28:37;15.00;;;7.10;;
37275;SDS011;23166;51.150;21.620;2022-11-21T16:31:04;13.10;;;7.83;;
37275;SDS011;23166;51.150;21.620;2022-11-21T16:33:31;14.78;;;7.17;;
37275;SDS011;23166;51.150;21.620;2022-11-21T16:35:58;14.87;;;6.03;;
37275;SDS011;23166;51.150;21.620;2022-11-21T16:38:25;20.95;;;8.80;;
37275;SDS011;23166;51.150;21.620;2022-11-21T16:43:25;12.30;;;6.20;;
37275;SDS011;23166;51.150;21.620;2022-11-21T16:45:53;13.60;;;5.37;;
37275;SDS011;23166;51.150;21.620;2022-11-21T16:48:20;14.98;;;7.08;;
37275;SDS011;23166;51.150;21.620;2022-11-21T16:50:48;14.80;;;8.57;;
37275;SDS011;23166;51.150;21.620;2022-11-21T16:53:15;16.13;;;8.40;;
37275;SDS011;23166;51.150;21.620;2022-11-21T16:55:41;13.88;;;7.55;;
37275;SDS011;23166;51.150;21.620;2022-11-21T16:58:08;11.25;;;5.85;;
37275;SDS011;23166;51.150;21.620;2022-11-21T17:00:34;16.10;;;5.80;;
37275;SDS011;23166;51.150;21.620;2022-11-21T17:03:01;16.60;;;7.45;;
37275;SDS011;23166;51.150;21.620;2022-11-21T17:05:27;17.67;;;7.97;;
37275;SDS011;23166;51.150;21.620;2022-11-21T17:07:53;10.58;;;5.33;;
37275;SDS011;23166;51.150;21.620;2022-11-21T17:10:21;13.93;;;6.40;;
37275;SDS011;23166;51.150;21.620;2022-11-21T17:12:48;8.68;;;6.10;;
37275;SDS011;23166;51.150;21.620;2022-11-21T17:15:14;11.03;;;6.12;;
37275;SDS011;23166;51.150;21.620;2022-11-21T17:17:42;12.90;;;8.60;;
37275;SDS011;23166;51.150;21.620;2022-11-21T17:20:08;15.25;;;7.55;;
37275;SDS011;23166;51.150;21.620;2022-11-21T17:22:35;18.60;;;6.67;;
37275;SDS011;23166;51.150;21.620;2022-11-21T17:25:02;13.83;;;7.62;;
37275;SDS011;23166;51.150;21.620;2022-11-21T17:27:29;10.43;;;5.47;;